createdAt,value
2023-02-25T00:00:51.401Z,22.33
2023-02-25T00:03:19.704Z,25.33
2023-02-25T00:05:46.683Z,20.00
2023-02-25T00:08:13.540Z,14.00
2023-02-25T00:10:40.285Z,41.25
2023-02-25T00:13:17.832Z,19.00
2023-02-25T00:15:45.401Z,29.67
2023-02-25T00:18:12.243Z,24.00
2023-02-25T00:20:42.513Z,27.33
2023-02-25T00:23:09.328Z,4.00
2023-02-25T00:25:36.456Z,36.50
2023-02-25T00:28:06.282Z,27.33
2023-02-25T00:30:35.019Z,27.67
2023-02-25T00:33:02.304Z,21.00
2023-02-25T00:35:29.218Z,17.67
2023-02-25T00:38:03.982Z,13.33
2023-02-25T00:40:39.304Z,20.00
2023-02-25T00:43:07.346Z,22.00
2023-02-25T00:45:34.318Z,19.67
2023-02-25T00:48:01.149Z,28.67
2023-02-25T00:50:28.221Z,19.67
2023-02-25T00:52:54.948Z,19.00
2023-02-25T00:55:21.859Z,17.67
2023-02-25T00:57:48.580Z,22.00
2023-02-25T01:00:18.625Z,21.67
2023-02-25T01:02:46.276Z,16.67
2023-02-25T01:05:14.196Z,22.67
2023-02-25T01:07:42.258Z,24.67
2023-02-25T01:10:10.776Z,15.67
2023-02-25T01:12:37.960Z,19.33
2023-02-25T01:15:05.166Z,11.00
2023-02-25T01:17:34.002Z,12.67
2023-02-25T01:20:00.763Z,16.33
2023-02-25T01:22:27.605Z,30.33
2023-02-25T01:24:57.405Z,19.00
2023-02-25T01:27:24.192Z,23.00
2023-02-25T01:29:50.978Z,18.00
2023-02-25T01:32:17.966Z,10.00
2023-02-25T01:34:44.858Z,9.67
2023-02-25T01:37:11.678Z,15.67
2023-02-25T01:39:41.519Z,14.67
2023-02-25T01:42:16.910Z,23.33
2023-02-25T01:45:20.438Z,21.00
2023-02-25T01:47:59.396Z,17.00
2023-02-25T01:50:34.252Z,15.00
2023-02-25T01:53:03.764Z,11.33
2023-02-25T01:55:31.105Z,14.00
2023-02-25T01:58:00.416Z,17.00
2023-02-25T02:00:30.265Z,14.67
2023-02-25T02:02:57.843Z,19.33
2023-02-25T02:05:37.628Z,15.00
2023-02-25T02:08:05.706Z,17.67
2023-02-25T02:10:32.591Z,17.00
2023-02-25T02:12:59.507Z,20.33
2023-02-25T02:15:29.542Z,23.33
2023-02-25T02:18:03.880Z,16.67
2023-02-25T02:20:51.452Z,14.33
2023-02-25T02:24:00.026Z,17.67
2023-02-25T02:27:11.409Z,13.33
2023-02-25T02:30:15.754Z,21.33
2023-02-25T02:32:45.399Z,16.67
2023-02-25T02:35:29.642Z,30.33
2023-02-25T02:38:20.840Z,32.67
2023-02-25T02:41:01.071Z,29.33
2023-02-25T02:43:41.170Z,23.33
2023-02-25T02:46:32.684Z,20.67
2023-02-25T02:49:06.928Z,28.67
2023-02-25T02:52:00.124Z,24.67
2023-02-25T02:54:32.632Z,23.00
2023-02-25T02:57:01.365Z,20.33
2023-02-25T02:59:54.026Z,18.67
2023-02-25T03:02:30.106Z,17.33
2023-02-25T03:05:11.651Z,42.50
2023-02-25T03:07:43.588Z,52.00
2023-02-25T03:10:16.022Z,36.00
2023-02-25T03:12:42.828Z,19.33
2023-02-25T03:15:10.336Z,26.00
2023-02-25T03:17:50.231Z,18.00
2023-02-25T03:20:25.401Z,22.67
2023-02-25T03:22:56.167Z,24.67
2023-02-25T03:25:52.362Z,31.67
2023-02-25T03:28:33.274Z,25.33
2023-02-25T03:31:25.545Z,19.00
2023-02-25T03:34:01.362Z,30.33
2023-02-25T03:36:33.339Z,14.67
2023-02-25T03:39:07.053Z,16.33
2023-02-25T03:41:38.516Z,15.67
2023-02-25T03:44:10.815Z,28.67
2023-02-25T03:46:42.299Z,16.00
2023-02-25T03:49:15.380Z,19.67
2023-02-25T03:51:45.403Z,16.67
2023-02-25T03:54:12.482Z,20.00
2023-02-25T03:56:45.372Z,22.00
2023-02-25T03:59:12.586Z,23.33
2023-02-25T04:01:41.184Z,21.33
2023-02-25T04:04:07.999Z,29.67
2023-02-25T04:06:34.894Z,17.00
2023-02-25T04:09:01.876Z,15.00
2023-02-25T04:11:28.738Z,19.33
2023-02-25T04:13:55.503Z,18.67
2023-02-25T04:16:22.612Z,24.00
2023-02-25T04:18:50.385Z,30.00
2023-02-25T04:21:35.476Z,20.00
2023-02-25T04:24:05.622Z,18.67
2023-02-25T04:26:33.732Z,28.33
2023-02-25T04:29:00.488Z,25.67
2023-02-25T04:31:27.493Z,26.00
2023-02-25T04:33:54.461Z,20.00
2023-02-25T04:36:24.374Z,18.67
2023-02-25T04:38:51.855Z,29.67
2023-02-25T04:41:18.816Z,29.67
2023-02-25T04:43:45.736Z,33.00
2023-02-25T04:46:13.408Z,42.25
2023-02-25T04:48:41.050Z,33.00
2023-02-25T04:51:08.612Z,38.75
2023-02-25T04:53:36.005Z,31.67
2023-02-25T04:56:07.533Z,33.33
2023-02-25T04:58:35.390Z,22.33
2023-02-25T05:01:05.646Z,29.67
2023-02-25T05:03:33.554Z,29.33
2023-02-25T05:06:01.060Z,33.67
2023-02-25T05:08:28.681Z,35.50
2023-02-25T05:10:55.788Z,27.50
2023-02-25T05:13:22.962Z,36.00
2023-02-25T05:15:49.939Z,51.50
2023-02-25T05:18:16.938Z,38.00
2023-02-25T05:20:47.208Z,47.50
2023-02-25T05:23:14.755Z,40.50
2023-02-25T05:25:41.748Z,44.75
2023-02-25T05:28:12.024Z,41.25
2023-02-25T05:30:39.656Z,41.25
2023-02-25T05:33:07.323Z,44.75
2023-02-25T05:35:34.251Z,38.75
2023-02-25T05:38:01.452Z,21.67
2023-02-25T05:40:28.258Z,37.25
2023-02-25T05:42:55.008Z,34.67
2023-02-25T05:45:21.848Z,39.50
2023-02-25T05:47:48.687Z,39.00
2023-02-25T05:50:15.603Z,38.00
2023-02-25T05:52:42.480Z,37.25
2023-02-25T05:55:10.122Z,33.75
2023-02-25T05:57:36.988Z,36.75
2023-02-25T06:00:09.726Z,38.00
2023-02-25T06:02:39.137Z,30.00
2023-02-25T06:05:06.721Z,15.33
2023-02-25T06:07:34.116Z,36.25
2023-02-25T06:10:01.918Z,38.75
2023-02-25T06:12:30.968Z,49.25
2023-02-25T06:14:57.942Z,44.50
2023-02-25T06:17:27.549Z,37.75
2023-02-25T06:19:54.315Z,40.75
2023-02-25T06:22:21.655Z,31.00
2023-02-25T06:24:49.211Z,32.50
2023-02-25T06:27:16.438Z,37.00
2023-02-25T06:29:43.189Z,29.00
2023-02-25T06:32:11.722Z,32.67
2023-02-25T06:34:39.814Z,43.75
2023-02-25T06:37:07.322Z,32.67
2023-02-25T06:39:34.531Z,42.75
2023-02-25T06:42:01.384Z,38.00
2023-02-25T06:44:29.291Z,43.50
2023-02-25T06:46:56.414Z,31.33
2023-02-25T06:49:23.468Z,32.33
2023-02-25T06:51:50.472Z,38.50
2023-02-25T06:54:18.051Z,38.25
2023-02-25T06:56:45.406Z,24.00
2023-02-25T06:59:12.172Z,29.67
2023-02-25T07:01:39.205Z,24.00
2023-02-25T07:04:06.057Z,16.00
2023-02-25T07:06:33.007Z,29.33
2023-02-25T07:08:59.789Z,42.00
2023-02-25T07:11:30.457Z,39.00
2023-02-25T07:13:57.703Z,11.33
2023-02-25T07:16:25.083Z,11.00
2023-02-25T07:18:52.220Z,15.00
2023-02-25T07:21:19.204Z,11.00
2023-02-25T07:23:46.648Z,9.00
2023-02-25T07:26:14.075Z,8.67
2023-02-25T07:28:41.756Z,11.33
2023-02-25T07:31:16.197Z,14.33
2023-02-25T07:33:43.661Z,11.67
2023-02-25T07:36:11.917Z,41.67
2023-02-25T07:38:39.501Z,12.00
2023-02-25T07:41:11.745Z,16.33
2023-02-25T07:43:40.034Z,54.25
2023-02-25T07:46:07.651Z,35.33
2023-02-25T07:48:34.757Z,12.00
2023-02-25T07:51:10.478Z,34.33
2023-02-25T07:53:38.088Z,18.33
2023-02-25T07:56:06.455Z,23.33
2023-02-25T07:58:33.821Z,22.67
2023-02-25T08:01:03.651Z,55.50
2023-02-25T08:03:38.553Z,42.67
2023-02-25T08:06:08.873Z,35.67
2023-02-25T08:08:37.252Z,14.67
2023-02-25T08:11:08.549Z,11.75
2023-02-25T08:13:35.817Z,16.25
2023-02-25T08:16:12.049Z,16.67
2023-02-25T08:18:41.137Z,25.33
2023-02-25T08:21:07.891Z,18.00
2023-02-25T08:23:34.752Z,15.00
2023-02-25T08:26:02.525Z,15.75
2023-02-25T08:28:34.295Z,20.67
2023-02-25T08:31:03.914Z,13.25
2023-02-25T08:33:31.156Z,13.75
2023-02-25T08:36:06.755Z,21.67
2023-02-25T08:38:33.535Z,12.75
2023-02-25T08:41:00.751Z,11.25
2023-02-25T08:43:27.508Z,34.33
2023-02-25T08:45:56.479Z,16.50
2023-02-25T08:48:23.654Z,17.00
2023-02-25T08:50:50.551Z,18.67
2023-02-25T08:53:17.550Z,19.00
2023-02-25T08:55:44.805Z,13.25
2023-02-25T08:58:11.582Z,13.50
2023-02-25T09:00:38.496Z,16.67
2023-02-25T09:03:05.300Z,25.33
2023-02-25T09:05:32.132Z,12.25
2023-02-25T09:07:59.111Z,17.67
2023-02-25T09:10:26.034Z,23.33
2023-02-25T09:12:53.607Z,11.00
2023-02-25T09:15:21.862Z,17.00
2023-02-25T09:17:48.735Z,10.75
2023-02-25T09:20:18.077Z,32.00
2023-02-25T09:22:44.956Z,22.33
2023-02-25T09:25:11.794Z,24.33
2023-02-25T09:27:38.631Z,12.00
2023-02-25T09:30:06.292Z,12.50
2023-02-25T09:32:33.229Z,18.50
2023-02-25T09:35:06.972Z,9.67
2023-02-25T09:37:34.778Z,14.75
2023-02-25T09:40:02.154Z,15.50
2023-02-25T09:42:44.372Z,31.00
2023-02-25T09:45:17.771Z,9.75
2023-02-25T09:47:56.925Z,22.00
2023-02-25T09:50:30.562Z,2.00
2023-02-25T09:53:07.599Z,12.75
2023-02-25T09:55:43.607Z,14.00
2023-02-25T09:58:41.486Z,13.50
2023-02-25T10:01:11.046Z,15.00
2023-02-25T10:03:54.636Z,27.00
2023-02-25T10:06:36.640Z,17.50
2023-02-25T10:09:12.019Z,15.25
2023-02-25T10:12:01.793Z,15.00
2023-02-25T10:14:48.583Z,19.25
2023-02-25T10:17:44.505Z,19.25
2023-02-25T10:20:38.727Z,17.00
2023-02-25T10:23:24.680Z,10.50
2023-02-25T10:26:11.232Z,17.00
2023-02-25T10:28:41.437Z,16.00
2023-02-25T10:31:14.703Z,12.00
2023-02-25T10:33:45.267Z,10.50
2023-02-25T10:36:40.142Z,13.00
2023-02-25T10:39:10.822Z,23.33
2023-02-25T10:41:38.050Z,11.25
2023-02-25T10:44:04.779Z,32.67
2023-02-25T10:46:58.558Z,17.25
2023-02-25T10:49:27.928Z,13.50
2023-02-25T10:52:03.378Z,26.33
2023-02-25T10:54:44.645Z,27.67
2023-02-25T10:57:16.390Z,23.67
2023-02-25T10:59:45.293Z,18.25
2023-02-25T11:02:25.817Z,17.00
2023-02-25T11:04:54.818Z,15.50
2023-02-25T11:07:42.021Z,17.50
2023-02-25T11:10:22.666Z,17.00
2023-02-25T11:12:57.107Z,2.00
2023-02-25T11:15:44.390Z,11.75
2023-02-25T11:18:27.165Z,12.00
2023-02-25T11:20:57.219Z,16.25
2023-02-25T11:23:31.558Z,7.25
2023-02-25T11:25:58.799Z,10.25
2023-02-25T11:28:38.276Z,15.75
2023-02-25T11:31:15.292Z,27.33
2023-02-25T11:33:53.215Z,29.00
2023-02-25T11:36:23.689Z,27.33
2023-02-25T11:39:11.349Z,41.00
2023-02-25T11:41:38.160Z,39.00
2023-02-25T11:44:24.119Z,34.33
2023-02-25T11:47:11.598Z,44.00
2023-02-25T11:50:05.089Z,41.33
2023-02-25T11:52:54.568Z,67.75
2023-02-25T11:55:49.545Z,44.00
2023-02-25T11:58:32.043Z,20.00
2023-02-25T12:01:12.673Z,8.00
2023-02-25T12:04:02.475Z,8.50
2023-02-25T12:07:04.868Z,18.50
2023-02-25T12:10:05.501Z,4.75
2023-02-25T12:12:41.519Z,7.50
2023-02-25T12:15:11.145Z,8.50
2023-02-25T12:17:59.255Z,11.75
2023-02-25T12:20:44.711Z,14.25
2023-02-25T12:23:33.176Z,24.67
2023-02-25T12:26:21.220Z,22.33
2023-02-25T12:29:09.761Z,18.67
2023-02-25T12:32:22.607Z,24.00
2023-02-25T12:34:58.131Z,23.67
2023-02-25T12:37:36.781Z,11.25
2023-02-25T12:40:37.064Z,13.00
2023-02-25T12:43:26.875Z,21.00
2023-02-25T12:46:08.806Z,40.00
2023-02-25T12:49:09.339Z,47.75
2023-02-25T12:51:38.705Z,13.67
2023-02-25T12:54:28.444Z,12.25
2023-02-25T12:57:19.540Z,14.67
2023-02-25T13:00:02.963Z,14.00
2023-02-25T13:02:44.853Z,16.67
2023-02-25T13:05:36.005Z,24.67
2023-02-25T13:08:32.953Z,36.00
2023-02-25T13:11:21.535Z,261.00
2023-02-25T13:14:03.269Z,51.00
2023-02-25T13:16:42.742Z,32.33
2023-02-25T13:19:23.820Z,37.67
2023-02-25T13:22:18.612Z,47.75
2023-02-25T13:25:19.827Z,64.50
2023-02-25T13:28:01.335Z,108.75
2023-02-25T13:30:51.315Z,107.50
2023-02-25T13:33:36.367Z,75.50
2023-02-25T13:36:42.958Z,71.75
2023-02-25T13:39:36.784Z,57.00
2023-02-25T13:42:22.072Z,50.25
2023-02-25T13:45:17.211Z,76.25
2023-02-25T13:47:59.579Z,72.75
2023-02-25T13:50:29.188Z,86.00
2023-02-25T13:53:29.697Z,98.00
2023-02-25T13:55:59.084Z,94.50
2023-02-25T13:58:34.907Z,118.25
2023-02-25T14:01:23.545Z,102.25
2023-02-25T14:04:26.598Z,100.00
2023-02-25T14:07:21.021Z,80.00
2023-02-25T14:10:18.963Z,90.75
2023-02-25T14:13:30.585Z,162.25
2023-02-25T14:16:18.878Z,203.50
2023-02-25T14:18:57.288Z,129.75
2023-02-25T14:22:11.933Z,107.75
2023-02-25T14:24:58.901Z,96.00
2023-02-25T14:27:48.413Z,133.75
2023-02-25T14:30:21.531Z,148.25
2023-02-25T14:33:04.849Z,141.50
2023-02-25T14:35:46.665Z,110.75
2023-02-25T14:38:17.808Z,79.50
2023-02-25T14:40:56.830Z,115.25
2023-02-25T14:43:38.793Z,140.00
2023-02-25T14:46:17.825Z,177.50
2023-02-25T14:48:56.681Z,115.75
2023-02-25T14:52:01.276Z,99.00
2023-02-25T14:54:49.741Z,137.33
2023-02-25T14:57:34.454Z,135.00
2023-02-25T15:00:28.897Z,115.75
2023-02-25T15:03:06.011Z,112.50
2023-02-25T15:06:07.548Z,105.00
2023-02-25T15:08:47.842Z,98.50
2023-02-25T15:11:45.485Z,66.50
2023-02-25T15:14:17.901Z,88.25
2023-02-25T15:17:09.485Z,139.00
2023-02-25T15:19:54.049Z,204.25
2023-02-25T15:22:30.452Z,178.00
2023-02-25T15:25:21.847Z,172.50
2023-02-25T15:27:56.746Z,166.75
2023-02-25T15:30:25.924Z,68.50
2023-02-25T15:33:11.241Z,96.75
2023-02-25T15:35:38.092Z,133.25
2023-02-25T15:38:14.721Z,133.25
2023-02-25T15:40:45.059Z,146.50
2023-02-25T15:43:14.601Z,119.00
2023-02-25T15:45:55.158Z,152.25
2023-02-25T15:48:31.705Z,117.25
2023-02-25T15:51:00.249Z,113.75
2023-02-25T15:53:28.323Z,76.25
2023-02-25T15:56:03.909Z,83.25
2023-02-25T15:58:30.618Z,95.50
2023-02-25T16:01:29.625Z,86.25
2023-02-25T16:03:56.698Z,157.75
2023-02-25T16:06:32.281Z,127.75
2023-02-25T16:09:28.490Z,113.00
2023-02-25T16:11:58.169Z,92.75
2023-02-25T16:14:30.048Z,99.75
2023-02-25T16:17:00.137Z,89.75
2023-02-25T16:19:30.909Z,157.25
2023-02-25T16:22:01.507Z,88.00
2023-02-25T16:24:29.228Z,100.75
2023-02-25T16:27:01.495Z,152.50
2023-02-25T16:29:28.452Z,107.00
2023-02-25T16:32:02.230Z,65.50
2023-02-25T16:34:51.132Z,46.25
2023-02-25T16:37:50.138Z,41.75
2023-02-25T16:40:26.324Z,57.75
2023-02-25T16:42:55.097Z,65.75
2023-02-25T16:45:42.395Z,97.50
2023-02-25T16:48:18.167Z,107.25
2023-02-25T16:50:47.607Z,113.00
2023-02-25T16:53:27.405Z,119.25
2023-02-25T16:55:59.498Z,91.00
2023-02-25T16:58:28.883Z,95.25
2023-02-25T17:00:58.679Z,52.25
2023-02-25T17:03:33.168Z,121.50
2023-02-25T17:06:06.853Z,125.75
2023-02-25T17:08:35.028Z,77.75
2023-02-25T17:11:05.357Z,101.25
2023-02-25T17:13:39.567Z,101.75
2023-02-25T17:16:08.037Z,92.25
2023-02-25T17:18:45.343Z,127.75
2023-02-25T17:21:53.497Z,89.75
2023-02-25T17:24:26.424Z,138.50
2023-02-25T17:26:53.924Z,100.75
2023-02-25T17:29:21.159Z,89.00
2023-02-25T17:31:53.815Z,192.25
2023-02-25T17:34:33.081Z,243.25
2023-02-25T17:37:04.511Z,212.75
2023-02-25T17:39:32.104Z,126.50
2023-02-25T17:41:58.900Z,173.25
2023-02-25T17:44:39.021Z,330.25
2023-02-25T17:47:09.709Z,85.75
2023-02-25T17:49:37.775Z,69.00
2023-02-25T17:52:08.498Z,84.25
2023-02-25T17:54:38.058Z,58.25
2023-02-25T17:57:17.853Z,88.75
2023-02-25T17:59:51.442Z,86.50
2023-02-25T18:02:36.745Z,63.50
2023-02-25T18:05:12.668Z,61.75
2023-02-25T18:07:44.115Z,38.00
2023-02-25T18:10:25.846Z,39.75
2023-02-25T18:12:54.912Z,39.00
2023-02-25T18:15:25.678Z,51.25
2023-02-25T18:17:57.451Z,38.50
2023-02-25T18:20:34.112Z,44.00
2023-02-25T18:23:05.565Z,54.50
2023-02-25T18:25:41.384Z,96.75
2023-02-25T18:28:22.371Z,160.75
2023-02-25T18:30:50.282Z,73.50
2023-02-25T18:33:18.189Z,79.75
2023-02-25T18:35:48.267Z,67.50
2023-02-25T18:38:21.161Z,96.75
2023-02-25T18:40:49.578Z,95.00
2023-02-25T18:43:19.051Z,83.25
2023-02-25T18:45:46.315Z,80.75
2023-02-25T18:48:14.077Z,121.50
2023-02-25T18:50:44.449Z,140.50
2023-02-25T18:53:20.184Z,138.00
2023-02-25T18:55:47.082Z,151.75
2023-02-25T18:58:15.814Z,196.50
2023-02-25T19:00:44.626Z,183.75
2023-02-25T19:03:16.298Z,143.25
2023-02-25T19:05:43.945Z,143.75
2023-02-25T19:08:16.520Z,167.75
2023-02-25T19:10:45.580Z,98.75
2023-02-25T19:13:19.030Z,146.00
2023-02-25T19:15:46.127Z,150.00
2023-02-25T19:18:14.614Z,157.00
2023-02-25T19:20:45.267Z,159.75
2023-02-25T19:23:14.956Z,59.25
2023-02-25T19:25:43.180Z,77.50
2023-02-25T19:28:11.184Z,52.00
2023-02-25T19:30:43.564Z,45.00
2023-02-25T19:33:12.537Z,42.50
2023-02-25T19:35:42.141Z,42.50
2023-02-25T19:38:14.264Z,50.50
2023-02-25T19:40:41.531Z,130.75
2023-02-25T19:43:08.295Z,149.75
2023-02-25T19:45:35.195Z,167.75
2023-02-25T19:48:02.297Z,186.00
2023-02-25T19:50:31.388Z,195.75
2023-02-25T19:52:58.661Z,47.25
2023-02-25T19:55:25.425Z,31.00
2023-02-25T19:57:52.832Z,29.50
2023-02-25T20:00:24.684Z,23.67
2023-02-25T20:02:53.736Z,28.67
2023-02-25T20:05:21.579Z,33.50
2023-02-25T20:07:48.426Z,29.00
2023-02-25T20:10:15.966Z,21.33
2023-02-25T20:12:45.180Z,28.67
2023-02-25T20:15:14.642Z,21.00
2023-02-25T20:17:43.250Z,22.33
2023-02-25T20:20:11.453Z,25.67
2023-02-25T20:22:39.313Z,51.25
2023-02-25T20:25:08.044Z,76.25
2023-02-25T20:27:37.261Z,118.25
2023-02-25T20:30:06.783Z,37.00
2023-02-25T20:32:34.156Z,27.67
2023-02-25T20:35:01.776Z,38.50
2023-02-25T20:37:32.974Z,28.67
2023-02-25T20:40:01.116Z,18.33
2023-02-25T20:42:31.042Z,27.33
2023-02-25T20:44:59.732Z,46.00
2023-02-25T20:47:27.925Z,16.00
2023-02-25T20:49:56.473Z,24.75
2023-02-25T20:52:24.013Z,16.00
2023-02-25T20:54:50.845Z,18.67
2023-02-25T20:57:20.405Z,19.67
2023-02-25T20:59:48.900Z,18.00
2023-02-25T21:02:17.079Z,13.00
2023-02-25T21:04:44.573Z,18.00
2023-02-25T21:07:11.799Z,36.50
2023-02-25T21:09:39.192Z,31.00
2023-02-25T21:12:06.719Z,29.25
2023-02-25T21:14:34.249Z,31.00
2023-02-25T21:17:01.225Z,26.00
2023-02-25T21:19:29.018Z,27.33
2023-02-25T21:21:56.475Z,17.00
2023-02-25T21:24:23.622Z,19.67
2023-02-25T21:26:50.512Z,14.00
2023-02-25T21:29:17.439Z,17.33
2023-02-25T21:31:44.359Z,15.00
2023-02-25T21:34:13.125Z,37.00
2023-02-25T21:36:41.774Z,16.75
2023-02-25T21:39:09.681Z,28.00
2023-02-25T21:41:38.164Z,23.67
2023-02-25T21:44:05.333Z,29.00
2023-02-25T21:46:32.521Z,16.00
2023-02-25T21:48:59.658Z,27.00
2023-02-25T21:51:27.779Z,33.25
2023-02-25T21:54:00.428Z,18.00
2023-02-25T21:56:28.265Z,29.25
2023-02-25T21:58:56.918Z,27.75
2023-02-25T22:01:28.249Z,14.33
2023-02-25T22:03:56.513Z,24.00
2023-02-25T22:06:24.657Z,18.75
2023-02-25T22:08:53.305Z,31.25
2023-02-25T22:11:23.746Z,27.50
2023-02-25T22:13:50.961Z,19.00
2023-02-25T22:16:18.242Z,19.33
2023-02-25T22:18:45.257Z,36.00
2023-02-25T22:21:29.752Z,21.00
2023-02-25T22:23:59.814Z,32.00
2023-02-25T22:26:33.360Z,28.00
2023-02-25T22:29:02.394Z,27.50
2023-02-25T22:31:29.755Z,48.50
2023-02-25T22:33:57.697Z,16.00
2023-02-25T22:36:24.912Z,29.67
2023-02-25T22:38:52.951Z,28.50
2023-02-25T22:41:25.414Z,37.50
2023-02-25T22:43:52.481Z,16.50
2023-02-25T22:46:23.856Z,18.00
2023-02-25T22:48:51.468Z,24.33
2023-02-25T22:51:25.914Z,27.75
2023-02-25T22:53:53.769Z,16.00
2023-02-25T22:56:21.062Z,17.33
2023-02-25T22:58:47.984Z,18.67
2023-02-25T23:01:17.013Z,14.33
2023-02-25T23:03:43.977Z,13.00
2023-02-25T23:06:11.965Z,12.00
2023-02-25T23:08:39.468Z,13.67
2023-02-25T23:11:17.046Z,15.00
2023-02-25T23:13:47.531Z,16.00
2023-02-25T23:16:24.662Z,23.33
2023-02-25T23:18:52.389Z,22.67
2023-02-25T23:21:20.113Z,19.67
2023-02-25T23:23:48.675Z,29.00
2023-02-25T23:26:18.519Z,16.33
2023-02-25T23:28:46.458Z,21.33
2023-02-25T23:31:27.759Z,22.00
2023-02-25T23:33:59.555Z,20.67
2023-02-25T23:36:27.638Z,23.33
2023-02-25T23:39:00.315Z,22.67
2023-02-25T23:41:28.423Z,21.67
2023-02-25T23:43:57.285Z,21.67
2023-02-25T23:46:26.455Z,16.67
2023-02-25T23:48:58.598Z,23.00
2023-02-25T23:51:26.416Z,22.00
2023-02-25T23:53:54.524Z,19.00
2023-02-25T23:56:21.580Z,25.67
2023-02-25T23:58:50.283Z,18.00
